Time;durP1;ratioP1;P1;durP2;ratioP2;P2;SDS_P1;SDS_P2;PMS_P1;PMS_P2;Temp;Humidity;BMP_temperature;BMP_pressure;BME280_temperature;BME280_humidity;BME280_pressure;Samples;Min_cycle;Max_cycle;Signal;HPM_P1;HPM_P2
2021/08/13 00:01:42;;;;;;;1.95;1.85;;;26.50;53.40;;;;;;5010235;28;20050;-73
2021/08/13 00:04:10;;;;;;;1.40;1.30;;;26.50;53.30;;;;;;5010146;28;20068;-74
2021/08/13 00:06:41;;;;;;;1.40;1.30;;;26.50;53.30;;;;;;5009592;28;20594;-73
2021/08/13 00:09:08;;;;;;;1.70;1.60;;;26.50;53.40;;;;;;5009584;28;20136;-74
2021/08/13 00:11:38;;;;;;;1.45;1.35;;;26.50;53.40;;;;;;5009792;28;20054;-73
2021/08/13 00:14:07;;;;;;;1.50;1.40;;;26.50;53.40;;;;;;5010015;28;20046;-73
2021/08/13 00:16:34;;;;;;;1.20;1.15;;;26.50;53.40;;;;;;5009709;28;20533;-74
2021/08/13 00:19:02;;;;;;;1.52;1.42;;;26.50;53.40;;;;;;5009868;28;20049;-74
2021/08/13 00:21:30;;;;;;;1.42;1.33;;;26.50;53.40;;;;;;5009675;28;20057;-73
2021/08/13 00:23:57;;;;;;;1.48;1.40;;;26.50;53.40;;;;;;5009764;28;20124;-73
2021/08/13 00:26:24;;;;;;;1.42;1.33;;;26.50;53.40;;;;;;5009515;28;20133;-73
2021/08/13 00:28:51;;;;;;;1.50;1.40;;;26.50;53.40;;;;;;5009214;28;20133;-73
2021/08/13 00:31:19;;;;;;;1.60;1.50;;;26.50;53.40;;;;;;5009672;28;20491;-74
2021/08/13 00:33:46;;;;;;;1.70;1.60;;;26.50;53.40;;;;;;5009538;28;20053;-73
2021/08/13 00:36:13;;;;;;;1.52;1.42;;;26.50;53.40;;;;;;5009241;28;20137;-74
2021/08/13 00:38:40;;;;;;;1.60;1.50;;;26.50;53.40;;;;;;5009628;28;20045;-73
2021/08/13 00:41:07;;;;;;;1.55;1.45;;;26.50;53.40;;;;;;5009489;28;20045;-74
2021/08/13 00:43:35;;;;;;;1.58;1.48;;;26.50;53.50;;;;;;5008069;28;20046;-73
2021/08/13 00:46:02;;;;;;;1.27;1.23;;;26.50;53.50;;;;;;5013783;28;20046;-73
2021/08/13 00:48:29;;;;;;;1.67;1.58;;;26.40;53.40;;;;;;5028806;28;20041;-74
2021/08/13 00:50:56;;;;;;;1.67;1.58;;;26.40;53.40;;;;;;5029066;28;20045;-73
2021/08/13 00:53:24;;;;;;;1.60;1.50;;;26.40;53.40;;;;;;5029140;28;20041;-73
2021/08/13 00:55:53;;;;;;;1.30;1.30;;;26.40;53.40;;;;;;5028888;28;20727;-73
2021/08/13 00:58:21;;;;;;;1.48;1.38;;;26.40;53.40;;;;;;5028505;28;20516;-74
2021/08/13 01:00:51;;;;;;;1.98;1.77;;;26.40;53.50;;;;;;5028776;28;20140;-73
2021/08/13 01:03:18;;;;;;;1.08;1.08;;;26.40;53.50;;;;;;5028660;28;20433;-74
2021/08/13 01:05:46;;;;;;;1.38;1.27;;;26.40;53.50;;;;;;5028415;28;20053;-74
2021/08/13 01:08:13;;;;;;;1.35;1.35;;;26.40;53.50;;;;;;5028673;28;20136;-73
2021/08/13 01:10:53;;;;;;;1.45;1.35;;;26.40;53.50;;;;;;5029002;28;20124;-74
2021/08/13 01:13:34;;;;;;;1.67;1.58;;;26.40;53.50;;;;;;5029543;28;20056;-74
2021/08/13 01:16:03;;;;;;;1.40;1.40;;;26.40;53.50;;;;;;5028682;28;20041;-73
2021/08/13 01:18:39;;;;;;;1.40;1.30;;;26.40;53.50;;;;;;5028463;28;20049;-74
2021/08/13 01:21:31;;;;;;;1.27;1.17;;;26.40;53.60;;;;;;5028547;28;20469;-73
2021/08/13 01:24:14;;;;;;;1.50;1.40;;;26.40;53.60;;;;;;5027297;28;20128;-73
2021/08/13 01:26:47;;;;;;;1.60;1.50;;;26.40;53.60;;;;;;5028073;28;20049;-73
2021/08/13 01:29:43;;;;;;;1.27;1.27;;;26.40;53.60;;;;;;5028022;28;20041;-73
2021/08/13 01:32:37;;;;;;;1.30;1.20;;;26.40;53.60;;;;;;5028501;28;20055;-73
2021/08/13 01:35:11;;;;;;;1.45;1.35;;;26.40;53.60;;;;;;5027342;28;20124;-73
2021/08/13 01:37:46;;;;;;;1.35;1.27;;;26.40;53.60;;;;;;5028368;28;20153;-73
2021/08/13 01:40:15;;;;;;;1.30;1.20;;;26.40;53.60;;;;;;5027973;28;20143;-74
2021/08/13 01:42:44;;;;;;;1.58;1.17;;;26.40;53.60;;;;;;5028446;28;20465;-73
2021/08/13 01:45:15;;;;;;;1.55;1.30;;;26.40;53.60;;;;;;5026308;28;20051;-73
2021/08/13 01:47:44;;;;;;;1.45;1.35;;;26.40;53.60;;;;;;5027629;28;20080;-73
2021/08/13 01:50:11;;;;;;;1.30;1.30;;;26.40;53.60;;;;;;5026742;28;20133;-73
2021/08/13 01:52:40;;;;;;;1.63;1.52;;;26.40;53.60;;;;;;5027993;28;20273;-74
2021/08/13 01:55:07;;;;;;;0.93;0.93;;;26.40;53.60;;;;;;5027839;28;20137;-73
2021/08/13 01:57:34;;;;;;;1.70;1.58;;;26.40;53.60;;;;;;5027758;28;20095;-73
2021/08/13 02:00:04;;;;;;;2.38;1.20;;;26.40;53.60;;;;;;5027975;28;20073;-73
2021/08/13 02:02:33;;;;;;;1.97;1.77;;;26.40;53.60;;;;;;5027757;28;20053;-73
2021/08/13 02:05:02;;;;;;;1.30;1.20;;;26.40;53.60;;;;;;5027757;28;20337;-73
2021/08/13 02:07:32;;;;;;;3.15;1.75;;;26.40;53.60;;;;;;5027953;28;20071;-74
2021/08/13 02:09:59;;;;;;;1.35;1.25;;;26.40;53.60;;;;;;5027386;28;20053;-73
2021/08/13 02:12:26;;;;;;;1.42;1.33;;;26.40;53.60;;;;;;5027592;28;20050;-76
2021/08/13 02:14:53;;;;;;;1.70;1.60;;;26.40;53.60;;;;;;5028011;28;20137;-74
2021/08/13 02:17:22;;;;;;;1.58;1.48;;;26.40;53.60;;;;;;5027598;28;20052;-74
2021/08/13 02:20:00;;;;;;;1.38;1.27;;;26.40;53.60;;;;;;5027739;28;20561;-73
2021/08/13 02:22:27;;;;;;;1.73;1.48;;;26.40;53.70;;;;;;5027627;28;20045;-76
2021/08/13 02:24:54;;;;;;;1.38;1.27;;;26.40;53.70;;;;;;5027450;28;20084;-73
2021/08/13 02:27:22;;;;;;;2.08;1.17;;;26.40;53.70;;;;;;5026853;28;20468;-73
2021/08/13 02:29:49;;;;;;;1.10;1.10;;;26.40;53.70;;;;;;5027238;28;20132;-73
2021/08/13 02:32:17;;;;;;;1.88;1.77;;;26.30;53.60;;;;;;5027610;28;20132;-73
2021/08/13 02:34:44;;;;;;;1.50;1.40;;;26.30;53.60;;;;;;5027462;28;20501;-73
2021/08/13 02:37:49;;;;;;;1.80;1.42;;;26.30;53.60;;;;;;5027230;28;20141;-73
2021/08/13 02:40:21;;;;;;;1.65;1.55;;;26.40;53.70;;;;;;5027321;28;20561;-73
2021/08/13 02:43:05;;;;;;;2.90;1.83;;;26.30;53.70;;;;;;5027177;28;20084;-74
2021/08/13 02:45:37;;;;;;;1.10;1.10;;;26.30;53.70;;;;;;5027388;28;20132;-73
2021/08/13 02:48:06;;;;;;;1.42;1.33;;;26.30;53.70;;;;;;5027491;28;20132;-73
2021/08/13 02:50:37;;;;;;;1.50;1.40;;;26.30;53.70;;;;;;5027510;28;20586;-74
2021/08/13 02:53:12;;;;;;;1.85;1.55;;;26.30;53.70;;;;;;5027176;28;20994;-74
2021/08/13 02:55:45;;;;;;;1.63;1.52;;;26.30;53.80;;;;;;5028628;28;20130;-73
2021/08/13 02:58:18;;;;;;;1.40;1.33;;;26.30;53.80;;;;;;5031070;28;20425;-73
2021/08/13 03:00:46;;;;;;;1.30;1.20;;;26.30;53.80;;;;;;5031008;28;20462;-73
2021/08/13 03:03:16;;;;;;;1.63;1.52;;;26.30;53.80;;;;;;5030980;28;20528;-73
2021/08/13 03:05:49;;;;;;;1.23;1.20;;;26.30;53.70;;;;;;5030035;28;20469;-73
2021/08/13 03:08:18;;;;;;;1.70;1.55;;;26.30;53.70;;;;;;5031161;28;20152;-73
2021/08/13 03:10:45;;;;;;;1.50;1.40;;;26.30;53.70;;;;;;5031834;28;20124;-75
2021/08/13 03:13:15;;;;;;;1.40;1.30;;;26.30;53.70;;;;;;5031018;28;20490;-74
2021/08/13 03:15:44;;;;;;;1.75;1.60;;;26.30;53.70;;;;;;5030618;28;20045;-73
2021/08/13 03:18:12;;;;;;;1.52;1.42;;;26.30;53.70;;;;;;5030851;28;20045;-73
2021/08/13 03:20:40;;;;;;;1.38;1.27;;;26.30;53.70;;;;;;5030615;28;20084;-73
2021/08/13 03:23:08;;;;;;;1.50;1.40;;;26.30;53.70;;;;;;5030725;28;20137;-73
2021/08/13 03:25:37;;;;;;;1.60;1.50;;;26.30;53.70;;;;;;5030509;28;20041;-73
2021/08/13 03:28:07;;;;;;;1.70;1.58;;;26.30;53.70;;;;;;5030973;28;20050;-73
2021/08/13 03:30:41;;;;;;;;;;;26.30;53.70;;;;;;5030624;28;20045;-73
2021/08/13 03:33:10;;;;;;;1.60;1.45;;;26.30;53.70;;;;;;5030640;28;19921;-74
2021/08/13 03:35:38;;;;;;;1.88;1.50;;;26.30;53.70;;;;;;5030002;28;20055;-73
2021/08/13 03:38:06;;;;;;;2.00;1.25;;;26.30;53.70;;;;;;5030780;28;20128;-73
2021/08/13 03:40:33;;;;;;;1.33;1.17;;;26.30;53.70;;;;;;5029697;28;20049;-73
2021/08/13 03:43:00;;;;;;;1.33;1.20;;;26.30;53.80;;;;;;5030031;28;20096;-74
2021/08/13 03:45:28;;;;;;;1.50;1.40;;;26.30;53.80;;;;;;5030368;28;20804;-73
2021/08/13 03:47:55;;;;;;;1.50;1.40;;;26.30;53.70;;;;;;5029776;28;20081;-73
2021/08/13 03:50:22;;;;;;;1.10;1.10;;;26.30;53.80;;;;;;5030271;28;20115;-73
2021/08/13 03:52:49;;;;;;;1.80;1.45;;;26.30;53.80;;;;;;5030126;28;20128;-73
2021/08/13 03:55:17;;;;;;;1.38;1.10;;;26.30;53.80;;;;;;5030044;28;20617;-73
2021/08/13 03:57:45;;;;;;;1.60;1.50;;;26.30;53.70;;;;;;5030048;28;20407;-73
2021/08/13 04:00:13;;;;;;;1.30;1.23;;;26.30;53.80;;;;;;5029684;28;20096;-73
2021/08/13 04:02:40;;;;;;;1.80;1.70;;;26.30;53.70;;;;;;5030004;28;20049;-72
2021/08/13 04:05:08;;;;;;;1.70;1.60;;;26.30;53.70;;;;;;5030241;28;20073;-73
2021/08/13 04:07:35;;;;;;;1.23;1.13;;;26.30;53.70;;;;;;5028840;28;20055;-73
2021/08/13 04:10:04;;;;;;;1.58;1.48;;;26.30;53.70;;;;;;5030118;28;20096;-73
2021/08/13 04:12:31;;;;;;;1.40;1.30;;;26.30;53.60;;;;;;5029423;28;20103;-73
2021/08/13 04:14:58;;;;;;;1.63;1.52;;;26.30;53.60;;;;;;5029726;28;20594;-74
2021/08/13 04:17:25;;;;;;;1.15;1.15;;;26.30;53.60;;;;;;5029708;28;20083;-73
2021/08/13 04:19:52;;;;;;;1.67;1.58;;;26.40;53.60;;;;;;5029527;28;20128;-73
2021/08/13 04:22:20;;;;;;;1.75;1.52;;;26.40;53.60;;;;;;5029763;28;20093;-73
2021/08/13 04:24:47;;;;;;;1.15;1.15;;;26.40;53.50;;;;;;5029603;28;20414;-75
2021/08/13 04:27:14;;;;;;;1.58;1.48;;;26.40;53.40;;;;;;5029662;28;20049;-73
2021/08/13 04:29:41;;;;;;;1.85;1.73;;;26.40;53.40;;;;;;5029155;28;20500;-72
2021/08/13 04:32:08;;;;;;;1.27;1.27;;;26.40;53.40;;;;;;5029195;28;20088;-73
2021/08/13 04:34:36;;;;;;;2.10;1.63;;;26.40;53.30;;;;;;5029287;28;20041;-72
2021/08/13 04:37:03;;;;;;;1.23;1.13;;;26.50;53.30;;;;;;5029122;28;20545;-73
2021/08/13 04:39:30;;;;;;;1.85;1.75;;;26.50;53.20;;;;;;5029183;28;20577;-73
2021/08/13 04:41:57;;;;;;;1.63;1.52;;;26.50;53.20;;;;;;5028859;28;20103;-73
2021/08/13 04:44:24;;;;;;;1.50;1.40;;;26.50;53.10;;;;;;5029015;28;20129;-72
2021/08/13 04:46:52;;;;;;;1.85;1.73;;;26.50;53.10;;;;;;5028973;28;20494;-70
2021/08/13 04:49:19;;;;;;;1.90;1.70;;;26.50;53.00;;;;;;5021652;28;20067;-68
2021/08/13 04:51:47;;;;;;;1.90;1.70;;;26.60;53.10;;;;;;5027469;28;20077;-68
2021/08/13 04:54:14;;;;;;;2.17;1.98;;;26.60;53.00;;;;;;5025812;28;20504;-73
2021/08/13 04:56:41;;;;;;;2.63;2.08;;;26.60;53.00;;;;;;5025260;28;20132;-71
2021/08/13 04:59:08;;;;;;;5.07;2.22;;;26.60;53.00;;;;;;5023865;28;20441;-72
2021/08/13 05:01:35;;;;;;;2.33;2.13;;;26.60;53.00;;;;;;5020051;28;20115;-73
2021/08/13 05:04:04;;;;;;;2.80;2.50;;;26.70;53.00;;;;;;5021016;28;20046;-73
2021/08/13 05:06:31;;;;;;;3.42;2.78;;;26.70;53.00;;;;;;5016397;28;20133;-74
2021/08/13 05:08:58;;;;;;;2.63;2.28;;;26.70;53.10;;;;;;5020857;28;20128;-75
2021/08/13 05:11:25;;;;;;;6.32;3.50;;;26.60;53.10;;;;;;5027648;28;20132;-72
2021/08/13 05:13:52;;;;;;;2.80;2.45;;;26.50;53.20;;;;;;5023610;28;20494;-73
2021/08/13 05:16:19;;;;;;;3.38;2.83;;;26.50;53.30;;;;;;5019318;28;20042;-70
2021/08/13 05:18:47;;;;;;;2.90;2.58;;;26.40;53.50;;;;;;5024116;28;20101;-74
2021/08/13 05:21:14;;;;;;;3.30;3.00;;;26.30;53.90;;;;;;5022943;28;20540;-73
2021/08/13 05:23:42;;;;;;;3.45;3.00;;;26.20;54.20;;;;;;5016429;28;20156;-74
2021/08/13 05:26:09;;;;;;;4.38;3.30;;;26.00;54.60;;;;;;5014139;28;20041;-70
2021/08/13 05:28:36;;;;;;;4.97;3.35;;;25.80;55.10;;;;;;5019551;28;20086;-70
2021/08/13 05:31:03;;;;;;;5.15;3.35;;;25.60;55.60;;;;;;5023189;28;20041;-75
2021/08/13 05:33:30;;;;;;;5.80;4.10;;;25.40;56.20;;;;;;5015718;28;20259;-68
2021/08/13 05:35:58;;;;;;;5.15;3.58;;;25.10;57.00;;;;;;5016845;28;20125;-63
2021/08/13 05:38:25;;;;;;;8.55;4.13;;;24.90;57.80;;;;;;5018819;28;20061;-74
2021/08/13 05:40:52;;;;;;;6.50;4.03;;;24.80;58.80;;;;;;5016136;28;20065;-72
2021/08/13 05:43:21;;;;;;;5.10;4.07;;;24.60;59.00;;;;;;5019246;28;20060;-72
2021/08/13 05:45:48;;;;;;;8.02;4.38;;;24.50;59.10;;;;;;5023717;28;20521;-72
2021/08/13 05:48:16;;;;;;;6.32;4.25;;;24.50;59.30;;;;;;5021103;28;20054;-73
2021/08/13 05:50:43;;;;;;;6.40;4.60;;;24.40;59.40;;;;;;5017881;28;20116;-61
2021/08/13 05:53:10;;;;;;;6.18;4.50;;;24.30;59.50;;;;;;5017720;28;20045;-64
2021/08/13 05:55:37;;;;;;;4.63;3.65;;;24.30;59.60;;;;;;5013105;28;20042;-70
2021/08/13 05:58:04;;;;;;;6.93;4.20;;;24.30;59.80;;;;;;5011795;28;20046;-70
2021/08/13 06:00:32;;;;;;;6.47;4.55;;;24.20;60.00;;;;;;5014439;28;20064;-67
2021/08/13 06:03:01;;;;;;;7.00;4.57;;;24.20;60.00;;;;;;5019340;28;20081;-71
2021/08/13 06:05:29;;;;;;;6.20;4.18;;;24.10;60.20;;;;;;5017576;28;20052;-71
2021/08/13 06:07:56;;;;;;;4.55;3.90;;;24.10;60.20;;;;;;5012823;28;20124;-72
2021/08/13 06:10:23;;;;;;;6.32;4.20;;;24.10;60.20;;;;;;5010815;28;20048;-71
2021/08/13 06:12:50;;;;;;;5.30;4.38;;;24.10;60.30;;;;;;5013867;28;20490;-70
2021/08/13 06:15:18;;;;;;;5.70;4.03;;;24.10;60.40;;;;;;5012054;28;20132;-72
2021/08/13 06:17:46;;;;;;;6.97;4.45;;;24.10;60.50;;;;;;5019053;28;20426;-75
2021/08/13 06:20:18;;;;;;;6.35;4.00;;;24.00;60.70;;;;;;5023633;28;20041;-70
2021/08/13 06:22:48;;;;;;;5.60;4.28;;;24.00;60.80;;;;;;5020928;28;20053;-73
2021/08/13 06:25:15;;;;;;;8.85;5.18;;;23.90;61.10;;;;;;5010032;28;20050;-72
2021/08/13 06:27:44;;;;;;;6.07;4.63;;;23.90;61.30;;;;;;5013930;28;20103;-74
2021/08/13 06:30:14;;;;;;;5.03;4.07;;;23.90;61.30;;;;;;5013253;28;20136;-74
2021/08/13 06:32:41;;;;;;;7.07;4.47;;;23.80;61.40;;;;;;5022454;28;20053;-74
2021/08/13 06:35:10;;;;;;;5.70;4.38;;;23.80;61.40;;;;;;5024887;28;20045;-76
2021/08/13 06:37:50;;;;;;;7.18;5.22;;;23.80;61.50;;;;;;5023132;28;20121;-72
2021/08/13 06:40:18;;;;;;;9.13;4.80;;;23.80;61.80;;;;;;5025960;28;20045;-69
2021/08/13 06:42:46;;;;;;;10.57;5.32;;;23.80;62.10;;;;;;5019689;28;20042;-72
2021/08/13 06:45:16;;;;;;;5.90;4.75;;;23.80;62.40;;;;;;5024576;28;20120;-70
2021/08/13 06:47:44;;;;;;;6.68;4.40;;;23.70;62.20;;;;;;5019378;28;20045;-72
2021/08/13 06:50:13;;;;;;;6.10;4.90;;;23.70;62.20;;;;;;5023279;28;20128;-71
2021/08/13 06:52:40;;;;;;;9.30;5.40;;;23.70;62.50;;;;;;5024773;28;20057;-74
2021/08/13 06:55:07;;;;;;;6.28;4.70;;;23.60;62.50;;;;;;5014702;28;20083;-68
2021/08/13 06:57:35;;;;;;;5.75;4.28;;;23.60;62.60;;;;;;5021848;28;20483;-69
2021/08/13 07:00:04;;;;;;;7.32;4.85;;;23.60;62.60;;;;;;5026133;28;21670;-69
2021/08/13 07:02:31;;;;;;;5.10;4.30;;;23.60;62.70;;;;;;5027569;28;20132;-69
2021/08/13 07:04:59;;;;;;;4.20;3.47;;;23.60;62.70;;;;;;5027472;28;20159;-70
2021/08/13 07:07:27;;;;;;;5.25;4.55;;;23.70;62.70;;;;;;5021376;28;20143;-71
2021/08/13 07:09:54;;;;;;;6.55;4.43;;;23.70;62.50;;;;;;5024787;28;20049;-70
2021/08/13 07:12:21;;;;;;;8.05;4.55;;;23.70;62.40;;;;;;5019815;28;20112;-76
2021/08/13 07:14:48;;;;;;;4.63;3.88;;;23.70;62.50;;;;;;5027698;28;20102;-68
2021/08/13 07:17:15;;;;;;;7.10;4.45;;;23.70;62.50;;;;;;5018221;28;20053;-69
2021/08/13 07:19:43;;;;;;;8.02;4.63;;;23.70;62.60;;;;;;5019109;28;20402;-71
2021/08/13 07:22:10;;;;;;;4.88;3.65;;;23.80;62.60;;;;;;5020092;28;20478;-69
2021/08/13 07:24:37;;;;;;;4.53;3.85;;;23.80;62.60;;;;;;5020162;28;20095;-71
2021/08/13 07:27:04;;;;;;;4.68;3.72;;;23.80;62.60;;;;;;5018890;28;20068;-71
2021/08/13 07:29:32;;;;;;;5.30;3.67;;;23.80;62.60;;;;;;5017285;28;20422;-70
2021/08/13 07:31:59;;;;;;;8.52;3.67;;;23.80;62.60;;;;;;5019180;28;20042;-69
2021/08/13 07:34:26;;;;;;;3.72;3.40;;;23.80;62.50;;;;;;5019856;28;20916;-69
2021/08/13 07:36:53;;;;;;;5.15;3.67;;;23.80;62.40;;;;;;5021627;28;20081;-68
2021/08/13 07:39:35;;;;;;;4.18;3.33;;;23.80;62.40;;;;;;5020321;28;20142;-72
2021/08/13 07:42:04;;;;;;;3.78;3.38;;;23.80;62.40;;;;;;5016772;28;20044;-72
2021/08/13 07:44:31;;;;;;;4.00;3.30;;;23.80;62.20;;;;;;5022219;28;20091;-69
2021/08/13 07:47:11;;;;;;;4.75;3.35;;;23.80;62.20;;;;;;5017246;28;20077;-68
2021/08/13 07:49:38;;;;;;;4.65;3.47;;;23.80;62.00;;;;;;5017830;28;20081;-71
2021/08/13 07:52:06;;;;;;;4.22;3.60;;;23.80;62.00;;;;;;5020804;28;20089;-67
2021/08/13 07:54:33;;;;;;;3.42;3.13;;;23.80;62.00;;;;;;5025762;28;20124;-74
2021/08/13 07:57:01;;;;;;;5.38;3.33;;;23.80;61.90;;;;;;5019272;28;20108;-69
2021/08/13 07:59:28;;;;;;;3.40;3.10;;;23.80;62.00;;;;;;5021801;28;20136;-70
2021/08/13 08:01:55;;;;;;;4.18;3.40;;;23.80;62.00;;;;;;5041464;28;20124;-69
2021/08/13 08:04:23;;;;;;;4.15;3.28;;;23.80;62.00;;;;;;5020181;28;20050;-69
2021/08/13 08:06:55;;;;;;;4.13;3.70;;;23.80;62.00;;;;;;5020171;28;20482;-69
2021/08/13 08:09:25;;;;;;;4.15;3.00;;;23.80;62.00;;;;;;5021251;28;20124;-72
2021/08/13 08:11:53;;;;;;;2.90;2.67;;;23.80;62.00;;;;;;5021800;28;20037;-69
2021/08/13 08:14:20;;;;;;;3.60;3.20;;;23.80;62.20;;;;;;5039077;28;20049;-72
2021/08/13 08:16:48;;;;;;;3.22;2.92;;;23.80;62.40;;;;;;5017296;28;20060;-72
2021/08/13 08:19:16;;;;;;;2.67;2.47;;;23.80;62.40;;;;;;5021146;28;20388;-72
2021/08/13 08:21:43;;;;;;;2.80;2.60;;;23.80;62.00;;;;;;5024269;28;20471;-69
2021/08/13 08:24:12;;;;;;;6.95;3.20;;;23.80;61.70;;;;;;5023551;28;20461;-72
2021/08/13 08:26:41;;;;;;;3.65;3.25;;;23.80;61.60;;;;;;5013758;28;20064;-70
2021/08/13 08:29:08;;;;;;;3.30;3.00;;;23.90;61.80;;;;;;5021650;28;20042;-73
2021/08/13 08:31:35;;;;;;;3.30;2.80;;;23.80;61.70;;;;;;5016788;28;20049;-72
2021/08/13 08:34:03;;;;;;;5.70;3.50;;;23.80;61.60;;;;;;5021876;28;20065;-72
2021/08/13 08:36:34;;;;;;;4.35;3.10;;;23.80;61.50;;;;;;5023492;28;20053;-70
2021/08/13 08:39:02;;;;;;;3.10;2.80;;;23.90;61.50;;;;;;5024054;28;20046;-72
2021/08/13 08:41:30;;;;;;;3.65;2.70;;;23.90;61.40;;;;;;5020232;28;20126;-70
2021/08/13 08:43:57;;;;;;;4.18;2.97;;;23.90;61.40;;;;;;5015113;28;20058;-70
2021/08/13 08:46:26;;;;;;;3.25;2.92;;;23.90;61.30;;;;;;5022093;28;20152;-69
2021/08/13 08:48:55;;;;;;;2.70;2.38;;;23.90;61.20;;;;;;5027182;28;20402;-67
2021/08/13 08:51:25;;;;;;;5.30;2.90;;;23.90;61.20;;;;;;5024111;28;20049;-72
2021/08/13 08:53:54;;;;;;;3.85;3.10;;;23.90;61.30;;;;;;5025665;28;20168;-76
2021/08/13 08:56:24;;;;;;;3.93;2.80;;;23.90;61.50;;;;;;5021025;28;20049;-73
2021/08/13 08:58:52;;;;;;;3.38;2.78;;;23.90;61.40;;;;;;5020334;28;20037;-73
2021/08/13 09:01:19;;;;;;;3.55;2.90;;;23.90;61.10;;;;;;5015996;28;20141;-70
2021/08/13 09:03:48;;;;;;;8.18;2.50;;;23.90;60.80;;;;;;5022566;28;20057;-69
2021/08/13 09:06:15;;;;;;;3.10;2.80;;;23.90;60.60;;;;;;5021308;28;20141;-70
2021/08/13 09:08:43;;;;;;;5.25;2.63;;;23.90;60.80;;;;;;5019785;28;20365;-68
2021/08/13 09:11:11;;;;;;;3.25;2.95;;;24.00;60.90;;;;;;5018050;28;20045;-71
2021/08/13 09:13:38;;;;;;;2.92;2.42;;;23.90;60.80;;;;;;5015409;28;20052;-68
2021/08/13 09:16:13;;;;;;;2.63;2.42;;;24.00;60.80;;;;;;5023535;28;20057;-71
2021/08/13 09:18:43;;;;;;;3.00;2.80;;;23.90;60.60;;;;;;5017400;28;20041;-70
2021/08/13 09:21:20;;;;;;;3.07;2.77;;;24.00;60.80;;;;;;5022911;28;20042;-69
2021/08/13 09:23:48;;;;;;;2.63;2.40;;;23.90;60.70;;;;;;5018586;28;20053;-70
2021/08/13 09:26:18;;;;;;;3.40;2.90;;;23.90;60.50;;;;;;5020091;28;20049;-71
2021/08/13 09:28:58;;;;;;;2.75;2.22;;;24.00;60.50;;;;;;5019654;28;20038;-73
2021/08/13 09:31:30;;;;;;;2.55;2.35;;;24.00;60.40;;;;;;5027539;28;20490;-68
2021/08/13 09:34:08;;;;;;;3.30;2.97;;;24.00;60.80;;;;;;5019422;28;20053;-72
2021/08/13 09:36:54;;;;;;;7.13;3.45;;;24.00;61.00;;;;;;5019334;28;20053;-68
2021/08/13 09:39:33;;;;;;;3.85;2.50;;;24.00;61.70;;;;;;5018608;28;20100;-69
2021/08/13 09:42:06;;;;;;;4.63;2.70;;;24.10;61.40;;;;;;5022003;28;20137;-69
2021/08/13 09:44:37;;;;;;;2.72;2.50;;;24.10;61.60;;;;;;5019673;28;20056;-67
2021/08/13 09:47:07;;;;;;;4.95;2.45;;;24.10;61.60;;;;;;5028006;28;20474;-64
2021/08/13 09:49:37;;;;;;;6.80;2.95;;;24.10;61.50;;;;;;5024850;28;20077;-69
2021/08/13 09:52:12;;;;;;;3.75;2.65;;;24.10;61.30;;;;;;5026092;28;20411;-70
2021/08/13 09:54:40;;;;;;;2.53;2.30;;;24.20;61.00;;;;;;5023866;28;20124;-72
2021/08/13 09:57:09;;;;;;;3.22;2.70;;;24.20;60.80;;;;;;5028590;28;20088;-68
2021/08/13 09:59:38;;;;;;;2.70;2.42;;;24.20;60.60;;;;;;5022113;28;20068;-69
2021/08/13 10:02:12;;;;;;;3.72;2.70;;;24.10;60.40;;;;;;5024132;28;20088;-67
2021/08/13 10:04:40;;;;;;;5.78;2.33;;;24.20;60.30;;;;;;5022984;28;20045;-70
2021/08/13 10:07:08;;;;;;;4.05;2.60;;;24.20;60.30;;;;;;5023667;28;20038;-72
2021/08/13 10:09:35;;;;;;;7.28;2.95;;;24.20;60.20;;;;;;5022734;28;20221;-69
2021/08/13 10:12:05;;;;;;;3.92;2.45;;;24.20;60.00;;;;;;5021196;28;20053;-68
2021/08/13 10:14:34;;;;;;;3.07;2.53;;;24.20;59.90;;;;;;5025447;28;20136;-71
2021/08/13 10:17:14;;;;;;;12.57;3.67;;;24.20;59.80;;;;;;5024307;28;20049;-71
2021/08/13 10:19:47;;;;;;;6.80;3.08;;;24.20;59.60;;;;;;5025259;28;20045;-72
2021/08/13 10:22:18;;;;;;;3.13;2.75;;;24.20;59.40;;;;;;5022580;28;20147;-72
2021/08/13 10:24:46;;;;;;;3.70;2.70;;;24.20;59.30;;;;;;5023622;28;20073;-72
2021/08/13 10:27:17;;;;;;;3.90;2.65;;;24.20;59.20;;;;;;5022826;28;20049;-75
2021/08/13 10:29:47;;;;;;;2.40;2.20;;;24.10;59.10;;;;;;5014754;28;20053;-73
2021/08/13 10:32:21;;;;;;;3.10;2.53;;;24.10;59.20;;;;;;5016861;28;20573;-71
2021/08/13 10:34:48;;;;;;;6.18;3.08;;;24.10;59.20;;;;;;5019639;28;20050;-73
2021/08/13 10:37:16;;;;;;;4.55;2.65;;;24.10;59.20;;;;;;5020928;28;20569;-70
2021/08/13 10:39:44;;;;;;;3.80;3.33;;;24.20;59.20;;;;;;5017817;28;20050;-71
2021/08/13 10:42:19;;;;;;;3.60;2.60;;;24.20;59.10;;;;;;5024271;28;20072;-69
2021/08/13 10:44:53;;;;;;;3.20;2.83;;;24.20;59.00;;;;;;5021290;28;20140;-70
2021/08/13 10:47:26;;;;;;;3.17;2.70;;;24.20;59.00;;;;;;5021157;28;20092;-71
2021/08/13 10:49:55;;;;;;;3.38;2.80;;;24.20;58.90;;;;;;5021963;28;20816;-73
2021/08/13 10:52:39;;;;;;;4.03;3.00;;;24.30;58.80;;;;;;5017736;28;20145;-71
2021/08/13 10:55:08;;;;;;;2.97;2.53;;;24.30;58.70;;;;;;5015439;28;20059;-72
2021/08/13 10:57:55;;;;;;;2.72;2.50;;;24.30;58.60;;;;;;5018939;28;20080;-65
2021/08/13 11:00:22;;;;;;;2.63;2.42;;;24.40;58.60;;;;;;5021465;28;20132;-66
2021/08/13 11:03:19;;;;;;;3.13;2.60;;;24.40;58.70;;;;;;5019662;28;20045;-73
2021/08/13 11:05:58;;;;;;;2.65;2.40;;;24.40;58.70;;;;;;5016884;28;20053;-66
2021/08/13 11:08:57;;;;;;;2.63;2.33;;;24.50;58.70;;;;;;5016279;28;20128;-69
2021/08/13 11:12:11;;;;;;;3.55;2.35;;;24.50;58.70;;;;;;5014992;28;20053;-72
2021/08/13 11:14:50;;;;;;;2.90;2.60;;;24.50;58.70;;;;;;5020403;28;20091;-72
2021/08/13 11:17:34;;;;;;;4.13;2.40;;;24.50;58.60;;;;;;5022814;28;20033;-79
2021/08/13 11:20:04;;;;;;;5.93;2.83;;;24.50;58.50;;;;;;5019354;28;20254;-77
2021/08/13 11:22:35;;;;;;;4.43;2.85;;;24.50;58.30;;;;;;5021589;28;20059;-72
2021/08/13 11:25:08;;;;;;;7.10;2.75;;;24.50;58.10;;;;;;5020188;28;20110;-70
2021/08/13 11:27:36;;;;;;;2.90;2.50;;;24.50;58.10;;;;;;5024149;28;20092;-78
2021/08/13 11:30:05;;;;;;;5.70;2.60;;;24.50;58.30;;;;;;5028003;28;20046;-68
2021/08/13 11:32:35;;;;;;;4.57;3.05;;;24.50;58.30;;;;;;5027017;28;20053;-74
2021/08/13 11:35:08;;;;;;;5.78;3.15;;;24.50;58.30;;;;;;5022848;28;20084;-70
2021/08/13 11:37:45;;;;;;;4.38;2.92;;;24.60;58.60;;;;;;5028387;28;20128;-67
2021/08/13 11:40:38;;;;;;;5.03;2.72;;;24.60;59.00;;;;;;5024206;28;20148;-78
2021/08/13 11:43:07;;;;;;;2.88;2.47;;;24.50;59.20;;;;;;5018922;28;20044;-72
2021/08/13 11:45:37;;;;;;;3.55;2.50;;;24.60;59.20;;;;;;5016180;28;20056;-71
2021/08/13 11:48:06;;;;;;;2.83;2.60;;;24.60;59.30;;;;;;5025748;28;20411;-73
2021/08/13 11:50:34;;;;;;;5.85;2.45;;;24.60;59.30;;;;;;5018888;28;20434;-70
2021/08/13 11:53:01;;;;;;;2.53;2.30;;;24.60;59.20;;;;;;5020658;28;20156;-74
2021/08/13 11:55:33;;;;;;;3.90;2.92;;;24.70;59.20;;;;;;5021130;28;20064;-73
2021/08/13 11:58:03;;;;;;;5.07;2.40;;;24.70;59.20;;;;;;5021035;28;20185;-72
2021/08/13 12:00:33;;;;;;;3.72;2.63;;;24.70;59.20;;;;;;5026174;28;20055;-67
2021/08/13 12:03:09;;;;;;;4.22;2.55;;;24.70;59.30;;;;;;5023968;28;20051;-75
2021/08/13 12:05:38;;;;;;;2.88;2.45;;;24.70;59.30;;;;;;5021992;28;20045;-71
2021/08/13 12:08:13;;;;;;;5.55;2.35;;;24.70;59.10;;;;;;5027560;28;20053;-70
2021/08/13 12:10:51;;;;;;;9.10;2.85;;;24.70;58.90;;;;;;5026632;28;20045;-74
2021/08/13 12:13:19;;;;;;;5.53;2.65;;;24.70;58.70;;;;;;5026637;28;20068;-75
2021/08/13 12:15:47;;;;;;;2.72;2.42;;;24.70;58.40;;;;;;5029205;28;20128;-75
2021/08/13 12:18:14;;;;;;;3.45;2.80;;;24.70;58.20;;;;;;5029134;28;20053;-76
2021/08/13 12:20:48;;;;;;;3.70;3.00;;;24.70;58.00;;;;;;5027699;28;20141;-76
2021/08/13 12:23:17;;;;;;;4.30;2.95;;;24.70;58.50;;;;;;5029608;28;20049;-73
2021/08/13 12:25:45;;;;;;;4.20;3.28;;;24.70;58.00;;;;;;5028775;28;20491;-76
2021/08/13 12:28:14;;;;;;;3.78;3.05;;;24.70;58.30;;;;;;5028602;28;20136;-76
2021/08/13 12:30:42;;;;;;;4.23;3.23;;;24.70;58.20;;;;;;5015562;28;20380;-76
2021/08/13 12:33:19;;;;;;;3.85;2.72;;;24.70;58.10;;;;;;5009352;28;20086;-76
2021/08/13 12:35:48;;;;;;;6.00;3.33;;;24.60;58.00;;;;;;5013644;28;20079;-76
2021/08/13 12:38:16;;;;;;;4.32;3.40;;;24.60;57.90;;;;;;5029685;28;20080;-73
2021/08/13 12:40:53;;;;;;;6.22;3.55;;;24.70;57.90;;;;;;5029590;28;20053;-83
2021/08/13 12:43:22;;;;;;;3.88;2.80;;;24.60;57.70;;;;;;5028786;28;20077;-83
2021/08/13 12:45:52;;;;;;;4.40;3.13;;;24.60;57.80;;;;;;5028514;28;20095;-84
2021/08/13 12:48:21;;;;;;;4.70;3.30;;;24.60;58.10;;;;;;5028401;28;20054;-83
2021/08/13 12:50:57;;;;;;;3.90;3.13;;;24.60;58.10;;;;;;5024231;28;20512;-83
2021/08/13 12:53:33;;;;;;;3.65;3.33;;;24.60;58.10;;;;;;5020116;28;20077;-84
2021/08/13 12:56:00;;;;;;;5.53;3.50;;;24.60;57.80;;;;;;5028029;28;20083;-83
2021/08/13 12:58:35;;;;;;;3.63;3.13;;;24.60;57.70;;;;;;5029707;28;20556;-84
2021/08/13 13:01:29;;;;;;;5.78;3.00;;;24.70;57.60;;;;;;5028744;28;20129;-83
2021/08/13 13:04:10;;;;;;;3.00;2.70;;;24.60;57.30;;;;;;5028825;28;20422;-83